地図

経路データ

SID SEASON NUMBER BASIN SUBBASIN NAME ISO_TIME NATURE LAT LON WMO_WIND WMO_PRES WMO_AGENCY TRACK_TYPE DIST2LAND LANDFALL IFLAG USA_AGENCY USA_ATCF_ID USA_LAT USA_LON USA_RECORD USA_STATUS USA_WIND USA_PRES USA_SSHS USA_R34_NE USA_R34_SE USA_R34_SW USA_R34_NW USA_R50_NE USA_R50_SE USA_R50_SW USA_R50_NW USA_R64_NE USA_R64_SE USA_R64_SW USA_R64_NW USA_POCI USA_ROCI USA_RMW USA_EYE TOKYO_LAT TOKYO_LON TOKYO_GRADE TOKYO_WIND TOKYO_PRES TOKYO_R50_DIR TOKYO_R50_LONG TOKYO_R50_SHORT TOKYO_R30_DIR TOKYO_R30_LONG TOKYO_R30_SHORT TOKYO_LAND CMA_LAT CMA_LON CMA_CAT CMA_WIND CMA_PRES HKO_LAT HKO_LON HKO_CAT HKO_WIND HKO_PRES NEWDELHI_LAT NEWDELHI_LON NEWDELHI_GRADE NEWDELHI_WIND NEWDELHI_PRES NEWDELHI_CI NEWDELHI_DP NEWDELHI_POCI REUNION_LAT REUNION_LON REUNION_TYPE REUNION_WIND REUNION_PRES REUNION_TNUM REUNION_CI REUNION_RMW REUNION_R34_NE REUNION_R34_SE REUNION_R34_SW REUNION_R34_NW REUNION_R50_NE REUNION_R50_SE REUNION_R50_SW REUNION_R50_NW REUNION_R64_NE REUNION_R64_SE REUNION_R64_SW REUNION_R64_NW BOM_LAT BOM_LON BOM_TYPE BOM_WIND BOM_PRES BOM_TNUM BOM_CI BOM_RMW BOM_R34_NE BOM_R34_SE BOM_R34_SW BOM_R34_NW BOM_R50_NE BOM_R50_SE BOM_R50_SW BOM_R50_NW BOM_R64_NE BOM_R64_SE BOM_R64_SW BOM_R64_NW BOM_ROCI BOM_POCI BOM_EYE BOM_POS_METHOD BOM_PRES_METHOD NADI_LAT NADI_LON NADI_CAT NADI_WIND NADI_PRES WELLINGTON_LAT WELLINGTON_LON WELLINGTON_WIND WELLINGTON_PRES DS824_LAT DS824_LON DS824_STAGE DS824_WIND DS824_PRES TD9636_LAT TD9636_LON TD9636_STAGE TD9636_WIND TD9636_PRES TD9635_LAT TD9635_LON TD9635_WIND TD9635_PRES TD9635_ROCI NEUMANN_LAT NEUMANN_LON NEUMANN_CLASS NEUMANN_WIND NEUMANN_PRES MLC_LAT MLC_LON MLC_CLASS MLC_WIND MLC_PRES USA_GUST BOM_GUST BOM_GUST_PER REUNION_GUST REUNION_GUST_PER USA_SEAHGT USA_SEARAD_NE USA_SEARAD_SE USA_SEARAD_SW USA_SEARAD_NW STORM_SPEED STORM_DIR
1913261N14147 1913 49 WP MM NOT_NAMED 1913-09-18 09:00:00 NR 14.0000 147.000 main 1803 1803 __________O___ -1 14.0000 147.000 4 10 289
1913261N14147 1913 49 WP MM NOT_NAMED 1913-09-18 12:00:00 NR 14.1666 146.505 main 1826 1826 __________P___ -1 14.1666 146.505 4 10 289
1913261N14147 1913 49 WP MM NOT_NAMED 1913-09-18 15:00:00 NR 14.3262 146.028 main 1838 1838 __________P___ -1 14.3262 146.028 4 9 289
1913261N14147 1913 49 WP MM NOT_NAMED 1913-09-18 18:00:00 NR 14.4726 145.587 main 1862 1862 __________P___ -1 14.4726 145.587 4 8 289
1913261N14147 1913 49 WP MM NOT_NAMED 1913-09-18 21:00:00 NR 14.6000 145.200 main 1877 1877 __________O___ -1 14.6000 145.200 4 7 289
1913261N14147 1913 49 WP MM NOT_NAMED 1913-09-19 00:00:00 NR 14.7057 144.878 main 1891 1891 __________P___ -1 14.7057 144.878 4 6 289
1913261N14147 1913 49 WP MM NOT_NAMED 1913-09-19 03:00:00 NR 14.7994 144.604 main 1906 1906 __________P___ -1 14.7994 144.604 4 5 290
1913261N14147 1913 49 WP MM NOT_NAMED 1913-09-19 06:00:00 NR 14.8933 144.353 main 1919 1919 __________P___ -1 14.8933 144.353 4 5 292
1913261N14147 1913 49 WP MM NOT_NAMED 1913-09-19 09:00:00 NR 15.0000 144.100 main 1935 1935 __________O___ -1 15.0000 144.100 4 6 295
1913261N14147 1913 49 WP MM NOT_NAMED 1913-09-19 12:00:00 NR 15.1271 143.835 main 1951 1951 __________P___ -1 15.1271 143.835 4 6 297
1913261N14147 1913 49 WP MM NOT_NAMED 1913-09-19 15:00:00 NR 15.2694 143.560 main 1977 1955 __________P___ -1 15.2694 143.560 4 6 298
1913261N14147 1913 49 WP MM NOT_NAMED 1913-09-19 18:00:00 NR 15.4270 143.254 main 1955 1916 __________P___ -1 15.4270 143.254 4 7 297
1913261N14147 1913 49 WP MM NOT_NAMED 1913-09-19 21:00:00 NR 15.6000 142.900 main 1916 1876 __________O___ -1 15.6000 142.900 4 8 294
1913261N14147 1913 49 WP MM NOT_NAMED 1913-09-20 00:00:00 NR 15.7572 142.487 main 1878 1838 __________P___ -1 15.7572 142.487 4 9 292
1913261N14147 1913 49 WP MM NOT_NAMED 1913-09-20 03:00:00 NR 15.9324 142.024 main 1827 1790 __________P___ -1 15.9324 142.024 4 10 293
1913261N14147 1913 49 WP MM NOT_NAMED 1913-09-20 06:00:00 NR 16.1414 141.524 main 1779 1735 __________P___ -1 16.1414 141.524 4 11 295
1913261N14147 1913 49 WP MM NOT_NAMED 1913-09-20 09:00:00 NR 16.4000 141.000 main 1735 1688 __________O___ -1 16.4000 141.000 4 11 297
1913261N14147 1913 49 WP MM NOT_NAMED 1913-09-20 12:00:00 NR 16.6597 140.470 main 1691 1646 __________P___ -1 16.6597 140.470 4 12 299
1913261N14147 1913 49 WP MM NOT_NAMED 1913-09-20 15:00:00 NR 16.9775 139.920 main 1639 1599 __________P___ -1 16.9775 139.920 4 13 304
1913261N14147 1913 49 WP MM NOT_NAMED 1913-09-20 18:00:00 NR 17.3815 139.360 main 1603 1563 __________P___ -1 17.3815 139.360 4 14 311
1913261N14147 1913 49 WP MM NOT_NAMED 1913-09-20 21:00:00 NR 17.9000 138.800 main 1563 1528 __________O___ -1 17.9000 138.800 4 16 314
1913261N14147 1913 49 WP MM NOT_NAMED 1913-09-21 00:00:00 NR 18.5126 138.133 main 1523 1484 __________P___ -1 18.5126 138.133 4 18 317
1913261N14147 1913 49 WP MM NOT_NAMED 1913-09-21 03:00:00 NR 19.2420 137.482 main 1484 1380 __________P___ -1 19.2420 137.482 4 19 324
1913261N14147 1913 49 WP MM NOT_NAMED 1913-09-21 06:00:00 NR 20.0751 136.940 main 1366 1272 __________P___ -1 20.0751 136.940 4 20 335
1913261N14147 1913 49 WP MM NOT_NAMED 1913-09-21 09:00:00 NR 21.0000 136.600 main 1262 1158 __________O___ -1 21.0000 136.600 4 20 349
1913261N14147 1913 49 WP MM NOT_NAMED 1913-09-21 12:00:00 NR 22.0357 136.521 main 1158 1057 __________P___ -1 22.0357 136.521 4 22 2
1913261N14147 1913 49 WP MM NOT_NAMED 1913-09-21 15:00:00 NR 23.1478 136.659 main 1062 968 __________P___ -1 23.1478 136.659 4 23 10
1913261N14147 1913 49 WP MM NOT_NAMED 1913-09-21 18:00:00 NR 24.2611 136.969 main 964 900 __________P___ -1 24.2611 136.969 4 23 17
1913261N14147 1913 49 WP MM NOT_NAMED 1913-09-21 21:00:00 NR 25.3000 137.400 main 898 837 __________O___ -1 25.3000 137.400 4 21 22
1913261N14147 1913 49 WP MM NOT_NAMED 1913-09-22 00:00:00 NR 26.1730 137.836 main 826 763 __________P___ -1 26.1730 137.836 4 19 28
1913261N14147 1913 49 WP MM NOT_NAMED 1913-09-22 03:00:00 NR 26.9616 138.379 main 756 705 __________P___ -1 26.9616 138.379 4 19 34
1913261N14147 1913 49 WP MM NOT_NAMED 1913-09-22 06:00:00 NR 27.6944 139.009 main 705 670 __________P___ -1 27.6944 139.009 4 19 39
1913261N14147 1913 49 WP MM NOT_NAMED 1913-09-22 09:00:00 NR 28.4000 139.700 main 670 629 __________O___ -1 28.4000 139.700 4 19 40
1913261N14147 1913 49 WP MM NOT_NAMED 1913-09-22 12:00:00 NR 29.1196 140.373 main 631 577 __________P___ -1 29.1196 140.373 4 19 41
1913261N14147 1913 49 WP MM NOT_NAMED 1913-09-22 15:00:00 NR 29.8191 141.107 main 577 525 __________P___ -1 29.8191 141.107 4 19 44
1913261N14147 1913 49 WP MM NOT_NAMED 1913-09-22 18:00:00 NR 30.5092 141.912 main 525 487 __________P___ -1 30.5092 141.912 4 20 47
1913261N14147 1913 49 WP MM NOT_NAMED 1913-09-22 21:00:00 NR 31.2000 142.800 main 492 477 __________O___ -1 31.2000 142.800 4 22 49
1913261N14147 1913 49 WP MM NOT_NAMED 1913-09-23 00:00:00 NR 31.9217 143.804 main 483 479 __________P___ -1 31.9217 143.804 4 23 51
1913261N14147 1913 49 WP MM NOT_NAMED 1913-09-23 03:00:00 NR 32.6395 144.889 main 504 502 __________P___ -1 32.6395 144.889 4 23 53
1913261N14147 1913 49 WP MM NOT_NAMED 1913-09-23 06:00:00 NR 33.3372 146.005 main 537 537 __________P___ -1 33.3372 146.005 4 23 54
1913261N14147 1913 49 WP MM NOT_NAMED 1913-09-23 09:00:00 NR 34.0000 147.100 main 595 595 __________O___ -1 34.0000 147.100 4 22 54
1913261N14147 1913 49 WP MM NOT_NAMED 1913-09-23 12:00:00 NR 34.6192 148.134 main 664 664 __________P___ -1 34.6192 148.134 4 20 54
1913261N14147 1913 49 WP MM NOT_NAMED 1913-09-23 15:00:00 NR 35.2021 149.114 main 742 742 __________P___ -1 35.2021 149.114 4 19 54
1913261N14147 1913 49 WP MM NOT_NAMED 1913-09-23 18:00:00 NR 35.7592 150.062 main 810 810 __________P___ -1 35.7592 150.062 4 19 54
1913261N14147 1913 49 WP MM NOT_NAMED 1913-09-23 21:00:00 NR 36.3000 151.000 main 855 __________O___ -1 36.3000 151.000 4 19 54

デジタル台風データ・検索

IBTrACS Databaseについて

本データベースは、米国NOAAが公開する1842年以降の世界の熱帯低気圧のベストトラックデータアーカイブInternational Best Track Archive for Climate Stewardship (IBTrACS)を、ウェブで閲覧しやすい形式に変換したものです。

最終更新日:2021-10-21